Airport View

Enter AWOS ICAO identifier for current METAR.

ex. KFNL

KTPL 221751Z AUTO VRB05KT 10SM CLR 34/21 A3002 RMK AO2 SLP164 T03390211 10350 20239 58006

22 Jul 2019 18:16

Frequency: 134.975

Phone: 254-774-8337

Other Area AWOS: KILE - KHLR - KPWG - KGRK

TAF KGRK 221600Z 2216/2322 24006KT 9999 FEW045 QNH3002INS BECMG 2217/2218 35006KT 9999 SCT060 QNH2996INS TEMPO 2223/2304 VRB15G20KT 4800 TSRA BKN050CB BECMG 2304/2305 01006KT 9999 SCT040 BKN070 QNH3007INS BECMG 2314/2315 02015G20KT 9999 FEW060 QNH3004INS TX38/2221Z TN22/2312Z